Terminal Aerodrome Forecast
Issued by NWS Bismarck, ND

Home | Current Version | Previous Version | Text Only | Print | Product List | Glossary Off
Versions: 1 2 3 4 5 6 7 8 9 10 11 12 13 14

241
FTUS43 KBIS 300916 AAB
TAFBIS
TAF AMD
KBIS 300916Z 3009/0106 06006KT P6SM SCT050 WS002/14026KT
     FM301600 05015KT P6SM SCT050
     FM010100 03006KT P6SM SKC=

USA.gov is the U.S. government's official web portal to all federal, state and local government web resources and services.